Time;durP1;ratioP1;P1;durP2;ratioP2;P2;SDS_P1;SDS_P2;PMS_P1;PMS_P2;Temp;Humidity;BMP_temperature;BMP_pressure;BME280_temperature;BME280_humidity;BME280_pressure;Samples;Min_cycle;Max_cycle;Signal;HPM_P1;HPM_P2
2023/05/26 00:02:14;;;;;;;27.93;7.23;;;;;11.00;102257.00;;;;10484874;28;20207;-76
2023/05/26 00:07:16;;;;;;;23.03;6.90;;;;;10.90;102252.00;;;;10489769;28;21294;-77
2023/05/26 00:12:17;;;;;;;21.50;6.80;;;;;10.80;102254.00;;;;10474543;27;20212;-78
2023/05/26 00:17:18;;;;;;;20.57;6.20;;;;;10.70;102254.00;;;;10457318;28;20221;-79
2023/05/26 00:22:20;;;;;;;27.40;7.33;;;;;10.60;102263.00;;;;10469402;28;20240;-78
2023/05/26 00:27:21;;;;;;;27.73;7.13;;;;;10.60;102267.00;;;;10488578;27;20271;-79
2023/05/26 00:32:24;;;;;;;29.23;7.40;;;;;10.50;102270.00;;;;10473050;27;20242;-77
2023/05/26 00:37:26;;;;;;;24.07;6.47;;;;;10.50;102276.00;;;;10470773;28;21123;-79
2023/05/26 00:42:27;;;;;;;30.50;6.53;;;;;10.40;102272.00;;;;10472923;27;20211;-78
2023/05/26 00:47:28;;;;;;;27.73;6.67;;;;;10.30;102266.00;;;;10472677;27;20242;-77
2023/05/26 00:52:31;;;;;;;28.43;6.97;;;;;10.30;102272.00;;;;10471277;28;20804;-79
2023/05/26 00:57:33;;;;;;;27.10;7.57;;;;;10.20;102258.00;;;;10453278;27;20235;-79
2023/05/26 01:02:35;;;;;;;32.47;7.60;;;;;10.20;102264.00;;;;11385088;22;20240;-75
2023/05/26 01:07:38;;;;;;;29.03;6.93;;;;;10.10;102260.00;;;;10324834;23;20372;-76
2023/05/26 01:12:52;;;;;;;24.73;6.07;;;;;10.10;102264.00;;;;10353233;28;20651;-76
2023/05/26 01:17:53;;;;;;;30.87;7.40;;;;;10.00;102277.00;;;;10348202;28;20221;-77
2023/05/26 01:23:46;;;;;;;15.57;6.57;;;;;9.90;102271.00;;;;10356499;28;20215;-79
2023/05/26 01:28:55;;;;;;;23.70;6.37;;;;;9.90;102279.00;;;;10325513;28;20214;-78
2023/05/26 01:33:56;;;;;;;24.80;6.63;;;;;9.90;102273.00;;;;10364377;28;20232;-75
2023/05/26 01:38:58;;;;;;;22.00;6.27;;;;;9.80;102275.00;;;;10321528;28;20205;-76
2023/05/26 01:44:08;;;;;;;22.63;6.17;;;;;9.80;102264.00;;;;10355713;28;20209;-75
2023/05/26 01:49:11;;;;;;;23.93;6.70;;;;;9.80;102274.00;;;;10355319;28;20210;-77
2023/05/26 01:54:16;;;;;;;23.37;6.50;;;;;9.80;102282.00;;;;10353654;28;20311;-75
2023/05/26 01:59:20;;;;;;;27.53;6.47;;;;;9.70;102284.00;;;;10337723;28;20206;-77
2023/05/26 02:04:22;;;;;;;19.53;6.27;;;;;9.70;102280.00;;;;10337107;28;20209;-77
2023/05/26 02:09:23;;;;;;;26.37;6.57;;;;;9.70;102282.00;;;;10356077;28;20208;-77
2023/05/26 02:14:25;;;;;;;18.27;5.97;;;;;9.60;102277.00;;;;10350387;28;20221;-75
2023/05/26 02:19:26;;;;;;;28.70;7.93;;;;;9.60;102285.00;;;;10362741;28;20241;-78
2023/05/26 02:24:27;;;;;;;24.87;6.73;;;;;9.50;102293.00;;;;10340483;28;20209;-76
2023/05/26 02:29:31;;;;;;;26.90;6.50;;;;;9.50;102299.00;;;;10351878;28;20252;-76
2023/05/26 02:34:32;;;;;;;23.97;6.40;;;;;9.40;102299.00;;;;10338486;28;20222;-75
2023/05/26 02:39:33;;;;;;;26.13;6.50;;;;;9.30;102300.00;;;;10335897;28;20571;-76
2023/05/26 02:44:34;;;;;;;33.03;6.77;;;;;9.30;102300.00;;;;10351340;28;20198;-76
2023/05/26 02:49:36;;;;;;;25.37;6.17;;;;;9.20;102300.00;;;;10353879;28;20785;-76
2023/05/26 02:54:38;;;;;;;27.37;6.60;;;;;9.20;102295.00;;;;10318065;28;20309;-75
2023/05/26 02:59:39;;;;;;;20.43;5.83;;;;;9.10;102298.00;;;;10324279;28;20469;-78
2023/05/26 03:04:40;;;;;;;22.43;6.63;;;;;9.10;102306.00;;;;10337355;28;20557;-74
2023/05/26 03:09:41;;;;;;;27.33;6.53;;;;;9.00;102299.00;;;;10335252;28;20216;-75
2023/05/26 03:14:43;;;;;;;26.87;5.83;;;;;8.90;102299.00;;;;10335318;28;20483;-77
2023/05/26 03:19:45;;;;;;;23.00;7.00;;;;;8.90;102300.00;;;;10339455;28;21394;-78
2023/05/26 03:24:46;;;;;;;26.10;6.13;;;;;8.90;102305.00;;;;10357941;28;20301;-78
2023/05/26 03:29:48;;;;;;;25.23;5.10;;;;;8.80;102306.00;;;;10355456;28;20478;-78
2023/05/26 03:34:50;;;;;;;28.77;7.43;;;;;8.80;102308.00;;;;10315107;28;20422;-76
2023/05/26 03:39:51;;;;;;;23.03;6.23;;;;;8.70;102308.00;;;;10348663;28;21743;-77
2023/05/26 03:44:56;;;;;;;24.63;6.70;;;;;8.70;102318.00;;;;10348724;28;20326;-76
2023/05/26 03:49:57;;;;;;;27.00;6.57;;;;;8.70;102330.00;;;;10318303;28;20205;-74
2023/05/26 03:55:01;;;;;;;24.87;6.93;;;;;8.70;102335.00;;;;10353109;28;20594;-75
2023/05/26 04:00:04;;;;;;;31.77;7.27;;;;;8.80;102334.00;;;;10351944;28;20251;-73
2023/05/26 04:05:07;;;;;;;25.03;6.93;;;;;8.80;102332.00;;;;10365756;28;20703;-75
2023/05/26 04:10:10;;;;;;;25.73;6.00;;;;;8.90;102331.00;;;;10354061;28;20577;-74
2023/05/26 04:15:12;;;;;;;26.03;6.77;;;;;8.90;102338.00;;;;10351145;28;20793;-78
2023/05/26 04:20:13;;;;;;;20.83;5.97;;;;;9.00;102352.00;;;;10351935;28;20216;-76
2023/05/26 04:25:15;;;;;;;27.90;7.33;;;;;9.10;102352.00;;;;10369441;28;20764;-75
2023/05/26 04:30:24;;;;;;;28.20;5.97;;;;;9.20;102355.00;;;;10351570;28;20210;-75
2023/05/26 04:36:10;;;;;;;27.23;7.50;;;;;9.30;102362.00;;;;10346747;28;21881;-73
2023/05/26 04:41:12;;;;;;;37.50;6.87;;;;;9.40;102367.00;;;;10369028;28;20235;-75
2023/05/26 04:46:15;;;;;;;28.80;6.50;;;;;9.50;102381.00;;;;10333717;28;20947;-74
2023/05/26 04:51:16;;;;;;;27.73;6.47;;;;;9.60;102383.00;;;;10332243;28;20284;-75
2023/05/26 04:56:18;;;;;;;18.33;5.53;;;;;9.80;102376.00;;;;10303247;28;21284;-75
2023/05/26 05:01:26;;;;;;;24.93;6.83;;;;;10.00;102374.00;;;;10321186;28;20293;-77
2023/05/26 05:06:48;;;;;;;32.83;7.43;;;;;10.20;102377.00;;;;10346672;28;20687;-76
2023/05/26 05:11:49;;;;;;;22.47;7.23;;;;;10.40;102383.00;;;;10336686;28;20328;-77
2023/05/26 05:16:52;;;;;;;28.63;6.47;;;;;10.70;102391.00;;;;10331801;28;20221;-77
2023/05/26 05:21:53;;;;;;;34.13;6.50;;;;;11.00;102383.00;;;;10338474;28;20665;-77
2023/05/26 05:26:55;;;;;;;25.60;6.57;;;;;11.30;102387.00;;;;10322400;28;20236;-77
2023/05/26 05:31:59;;;;;;;24.87;5.73;;;;;11.60;102392.00;;;;10343802;28;20714;-75
2023/05/26 05:37:03;;;;;;;25.70;6.07;;;;;11.80;102397.00;;;;10359219;28;20805;-75
2023/05/26 05:42:04;;;;;;;23.40;6.50;;;;;12.20;102405.00;;;;10348340;28;20327;-78
2023/05/26 05:47:06;;;;;;;29.33;7.10;;;;;12.60;102413.00;;;;10326404;28;20213;-78
2023/05/26 05:52:30;;;;;;;25.40;6.53;;;;;12.90;102413.00;;;;10354603;28;20576;-74
2023/05/26 05:57:31;;;;;;;24.70;6.90;;;;;13.00;102422.00;;;;10372000;28;20233;-76
2023/05/26 06:02:33;;;;;;;26.03;6.40;;;;;13.50;102425.00;;;;10357821;28;20218;-75
2023/05/26 06:07:34;;;;;;;27.93;6.80;;;;;13.80;102424.00;;;;10356468;28;20210;-77
2023/05/26 06:12:36;;;;;;;21.60;6.90;;;;;13.90;102429.00;;;;10353389;28;20493;-76
2023/05/26 06:17:37;;;;;;;26.63;6.20;;;;;14.00;102424.00;;;;10335535;28;20673;-78
2023/05/26 06:22:38;;;;;;;25.17;6.30;;;;;14.20;102433.00;;;;10354939;28;20216;-76
2023/05/26 06:27:40;;;;;;;26.47;6.73;;;;;14.50;102432.00;;;;10340342;28;20210;-76
2023/05/26 06:32:42;;;;;;;31.27;7.03;;;;;14.90;102427.00;;;;10369651;28;21652;-76
2023/05/26 06:37:44;;;;;;;22.13;6.53;;;;;15.40;102427.00;;;;10361839;28;20384;-76
2023/05/26 06:42:46;;;;;;;21.33;5.63;;;;;15.90;102427.00;;;;10369442;28;20244;-76
2023/05/26 06:47:48;;;;;;;23.83;6.32;;;;;16.30;102436.00;;;;10373309;28;20215;-76
2023/05/26 06:52:51;;;;;;;22.10;5.82;;;;;16.80;102428.00;;;;10353573;28;20258;-76
2023/05/26 06:57:52;;;;;;;18.85;5.82;;;;;16.80;102446.00;;;;10367082;28;20884;-76
2023/05/26 07:02:53;;;;;;;27.02;6.10;;;;;15.80;102448.00;;;;10338221;28;20315;-76
2023/05/26 07:07:59;;;;;;;26.55;7.07;;;;;15.20;102449.00;;;;10369438;28;20217;-74
2023/05/26 07:13:02;;;;;;;36.90;7.28;;;;;15.20;102454.00;;;;10356568;28;20293;-76
2023/05/26 07:18:08;;;;;;;25.05;6.68;;;;;15.00;102441.00;;;;10313334;28;20381;-76
2023/05/26 07:23:11;;;;;;;24.75;5.93;;;;;16.70;102444.00;;;;10365667;28;20363;-75
2023/05/26 07:28:14;;;;;;;28.23;5.75;;;;;18.40;102456.00;;;;10346677;28;20209;-76
2023/05/26 07:33:15;;;;;;;28.58;6.57;;;;;18.10;102460.00;;;;10330566;28;20217;-77
2023/05/26 07:38:17;;;;;;;24.17;6.15;;;;;17.70;102465.00;;;;10363850;28;20230;-76
2023/05/26 07:43:19;;;;;;;18.63;5.53;;;;;17.30;102470.00;;;;10350655;28;20205;-74
2023/05/26 07:48:20;;;;;;;24.88;5.47;;;;;17.10;102456.00;;;;10341149;28;20435;-76
2023/05/26 07:53:23;;;;;;;28.92;7.45;;;;;18.10;102438.00;;;;10360286;28;20483;-77
2023/05/26 07:58:24;;;;;;;22.13;5.95;;;;;18.90;102435.00;;;;10346039;28;20491;-76
2023/05/26 08:03:25;;;;;;;20.20;5.75;;;;;19.80;102435.00;;;;10365332;28;20825;-75
2023/05/26 08:08:27;;;;;;;23.42;6.90;;;;;20.00;102436.00;;;;10363456;28;20201;-77
2023/05/26 08:13:28;;;;;;;28.30;6.35;;;;;20.30;102425.00;;;;10366275;28;20683;-76
2023/05/26 08:18:30;;;;;;;17.90;5.57;;;;;20.50;102428.00;;;;10361882;28;21282;-75
2023/05/26 08:23:31;;;;;;;28.25;5.68;;;;;20.80;102421.00;;;;10349212;28;20293;-76
2023/05/26 08:28:32;;;;;;;24.70;6.45;;;;;21.00;102430.00;;;;10363063;28;20206;-76
2023/05/26 08:33:34;;;;;;;21.35;5.18;;;;;21.20;102434.00;;;;10354077;28;20228;-76
2023/05/26 08:38:35;;;;;;;22.58;6.13;;;;;21.40;102431.00;;;;10319173;28;20225;-76
2023/05/26 08:43:51;;;;;;;23.10;6.28;;;;;21.80;102434.00;;;;10361506;28;20345;-74
2023/05/26 08:49:08;;;;;;;18.50;5.38;;;;;22.00;102444.00;;;;10350558;28;20205;-77
2023/05/26 08:54:09;;;;;;;21.83;6.03;;;;;21.80;102438.00;;;;10346292;28;20216;-75
2023/05/26 08:59:12;;;;;;;19.45;5.43;;;;;22.20;102445.00;;;;10365266;28;20938;-74
2023/05/26 09:04:14;;;;;;;18.30;5.20;;;;;22.30;102427.00;;;;10362212;28;20217;-75
2023/05/26 09:09:17;;;;;;;18.50;5.55;;;;;22.60;102427.00;;;;10360251;28;20244;-76
2023/05/26 09:14:21;;;;;;;18.23;5.18;;;;;22.50;102424.00;;;;10347670;28;20241;-76
2023/05/26 09:19:25;;;;;;;17.58;5.82;;;;;22.70;102426.00;;;;10362015;28;20469;-76
2023/05/26 09:24:27;;;;;;;15.50;5.57;;;;;23.20;102420.00;;;;10361616;28;20225;-76
2023/05/26 09:29:28;;;;;;;16.10;5.13;;;;;23.80;102424.00;;;;10366046;28;21558;-75
2023/05/26 09:34:31;;;;;;;22.77;5.63;;;;;23.70;102420.00;;;;10355773;28;20228;-75
2023/05/26 09:39:33;;;;;;;22.77;6.28;;;;;23.60;102419.00;;;;10369530;28;20217;-77
2023/05/26 09:44:35;;;;;;;21.52;6.10;;;;;24.00;102423.00;;;;10355421;28;20342;-77
2023/05/26 09:49:36;;;;;;;20.50;6.13;;;;;24.10;102425.00;;;;10365527;28;20451;-78
2023/05/26 09:54:37;;;;;;;18.17;5.47;;;;;24.30;102421.00;;;;10362616;28;20701;-78
2023/05/26 09:59:41;;;;;;;19.20;6.25;;;;;24.40;102420.00;;;;10367461;28;20214;-78
2023/05/26 10:04:43;;;;;;;16.00;5.40;;;;;24.70;102415.00;;;;10368899;28;20464;-78
2023/05/26 10:09:52;;;;;;;19.95;6.70;;;;;24.70;102418.00;;;;10374041;28;20206;-79
2023/05/26 10:14:53;;;;;;;20.85;5.30;;;;;24.90;102417.00;;;;10374272;28;20217;-79
2023/05/26 10:19:57;;;;;;;16.17;6.03;;;;;24.70;102417.00;;;;10394556;28;20205;-77
2023/05/26 10:25:09;;;;;;;16.08;5.65;;;;;25.10;102405.00;;;;10365625;28;20238;-77
2023/05/26 10:30:15;;;;;;;17.23;6.07;;;;;25.40;102421.00;;;;10362189;28;21041;-77
2023/05/26 10:35:29;;;;;;;21.55;6.15;;;;;25.20;102415.00;;;;10342190;28;20796;-74
2023/05/26 10:40:33;;;;;;;15.48;5.43;;;;;25.40;102393.00;;;;10333789;28;21926;-76
2023/05/26 10:45:43;;;;;;;17.60;6.30;;;;;25.90;102394.00;;;;10374820;28;20217;-78
2023/05/26 10:51:00;;;;;;;19.25;6.40;;;;;25.80;102381.00;;;;10369472;28;20202;-78
2023/05/26 10:56:08;;;;;;;16.95;6.30;;;;;26.40;102388.00;;;;10376343;28;20225;-78
2023/05/26 11:01:19;;;;;;;16.52;5.47;;;;;26.00;102386.00;;;;10358073;28;21954;-75
2023/05/26 11:06:37;;;;;;;23.33;5.75;;;;;26.30;102377.00;;;;10338332;28;20231;-75
2023/05/26 11:11:51;;;;;;;13.70;5.18;;;;;26.50;102367.00;;;;10341478;28;20295;-77
2023/05/26 11:16:56;;;;;;;13.50;4.65;;;;;27.20;102367.00;;;;10359269;28;20240;-77
2023/05/26 11:22:02;;;;;;;13.15;5.22;;;;;27.00;102371.00;;;;10378136;28;20615;-77
2023/05/26 11:27:05;;;;;;;16.10;4.65;;;;;26.70;102370.00;;;;10363764;28;20247;-77
2023/05/26 11:32:06;;;;;;;18.63;5.15;;;;;27.20;102362.00;;;;10339316;28;20454;-76
2023/05/26 11:37:08;;;;;;;9.43;4.10;;;;;27.20;102366.00;;;;10372406;28;20225;-77
2023/05/26 11:42:10;;;;;;;14.07;4.65;;;;;27.20;102354.00;;;;10387396;28;21703;-78
2023/05/26 11:47:14;;;;;;;15.73;4.22;;;;;27.20;102347.00;;;;10368022;28;20753;-78
2023/05/26 11:52:16;;;;;;;9.48;3.80;;;;;27.60;102343.00;;;;10387897;28;20202;-78
2023/05/26 11:57:31;;;;;;;11.82;4.38;;;;;27.70;102354.00;;;;10384983;28;21229;-78
2023/05/26 12:02:33;;;;;;;13.93;4.72;;;;;27.80;102344.00;;;;10365313;28;21040;-78
2023/05/26 12:07:36;;;;;;;19.70;4.85;;;;;28.00;102345.00;;;;10384265;28;20213;-77
2023/05/26 12:12:50;;;;;;;10.30;4.00;;;;;28.30;102347.00;;;;10383763;28;20316;-77
2023/05/26 12:17:53;;;;;;;13.80;4.70;;;;;27.90;102343.00;;;;10366071;28;20225;-77
2023/05/26 12:23:02;;;;;;;17.63;4.95;;;;;27.80;102327.00;;;;10380123;28;20209;-76
2023/05/26 12:28:03;;;;;;;10.05;4.88;;;;;27.50;102330.00;;;;10357914;28;20300;-77
2023/05/26 12:33:05;;;;;;;12.95;5.03;;;;;27.50;102332.00;;;;10410718;28;20366;-77
2023/05/26 12:38:11;;;;;;;11.40;3.90;;;;;27.60;102319.00;;;;10394993;28;20333;-76
2023/05/26 12:43:12;;;;;;;12.25;4.18;;;;;27.40;102322.00;;;;10375683;28;21861;-77
2023/05/26 12:48:14;;;;;;;11.35;4.38;;;;;27.40;102307.00;;;;10396322;28;20208;-77
2023/05/26 12:53:15;;;;;;;9.90;4.18;;;;;27.70;102321.00;;;;10403651;28;20208;-77
2023/05/26 12:58:16;;;;;;;14.30;4.45;;;;;27.20;102319.00;;;;10373102;28;20221;-78
2023/05/26 13:03:19;;;;;;;17.15;4.55;;;;;27.00;102326.00;;;;10390677;28;21959;-77
2023/05/26 13:08:22;;;;;;;19.33;5.05;;;;;26.90;102314.00;;;;10404802;28;20489;-77
2023/05/26 13:13:24;;;;;;;12.02;4.32;;;;;27.10;102311.00;;;;10404683;28;21945;-77
2023/05/26 13:18:25;;;;;;;15.88;4.47;;;;;27.20;102313.00;;;;10416039;28;20221;-77
2023/05/26 13:23:27;;;;;;;16.33;4.35;;;;;27.00;102306.00;;;;10416515;28;20203;-78
2023/05/26 13:28:28;;;;;;;11.48;4.13;;;;;27.00;102296.00;;;;10398160;28;20250;-77
2023/05/26 13:33:29;;;;;;;14.32;4.05;;;;;27.10;102295.00;;;;10431999;28;20208;-77
2023/05/26 13:38:31;;;;;;;11.88;4.38;;;;;27.10;102294.00;;;;10433149;28;21063;-77
2023/05/26 13:43:35;;;;;;;14.25;4.38;;;;;27.00;102290.00;;;;10431460;28;20215;-78
2023/05/26 13:48:36;;;;;;;13.43;3.97;;;;;26.90;102288.00;;;;10431322;28;20225;-77
2023/05/26 13:53:39;;;;;;;11.10;3.92;;;;;26.80;102285.00;;;;10428926;28;20228;-78
2023/05/26 13:58:41;;;;;;;12.05;3.95;;;;;26.60;102285.00;;;;10407426;28;21837;-78
2023/05/26 14:03:42;;;;;;;13.20;3.58;;;;;26.80;102285.00;;;;10406907;28;20208;-78
2023/05/26 14:08:43;;;;;;;9.07;3.50;;;;;26.60;102281.00;;;;10423353;28;22267;-78
2023/05/26 14:13:45;;;;;;;12.95;3.72;;;;;26.50;102274.00;;;;10417242;28;20215;-78
2023/05/26 14:18:46;;;;;;;11.27;3.58;;;;;26.50;102273.00;;;;10417776;28;20310;-78
2023/05/26 14:24:07;;;;;;;11.77;3.55;;;;;26.90;102271.00;;;;10402351;28;20201;-78
2023/05/26 14:29:10;;;;;;;11.50;4.30;;;;;27.20;102263.00;;;;10423396;28;21946;-78
2023/05/26 14:34:11;;;;;;;14.75;3.65;;;;;27.70;102254.00;;;;10421678;28;20259;-78
2023/05/26 14:39:13;;;;;;;7.82;3.28;;;;;28.30;102260.00;;;;10396527;28;20225;-78
2023/05/26 14:44:15;;;;;;;11.00;3.53;;;;;28.30;102251.00;;;;10413261;28;20292;-78
2023/05/26 14:49:16;;;;;;;11.63;3.53;;;;;29.30;102245.00;;;;10417693;28;22068;-78
2023/05/26 14:54:19;;;;;;;12.95;3.92;;;;;30.30;102246.00;;;;10414983;28;20884;-77
2023/05/26 14:59:20;;;;;;;12.52;3.55;;;;;31.40;102248.00;;;;10412094;28;20220;-78
2023/05/26 15:04:22;;;;;;;13.52;3.60;;;;;31.70;102256.00;;;;10397542;28;22008;-77
2023/05/26 15:09:23;;;;;;;8.88;3.25;;;;;32.40;102247.00;;;;10385692;28;20284;-77
2023/05/26 15:14:24;;;;;;;11.57;4.15;;;;;33.30;102253.00;;;;10399349;28;20279;-78
2023/05/26 15:19:26;;;;;;;11.70;4.30;;;;;33.50;102247.00;;;;10392639;28;20260;-78
2023/05/26 15:24:27;;;;;;;10.68;3.05;;;;;33.10;102248.00;;;;10415801;28;20336;-76
2023/05/26 15:29:28;;;;;;;11.80;3.47;;;;;31.00;102262.00;;;;10402891;28;20298;-77
2023/05/26 15:34:29;;;;;;;11.82;3.75;;;;;28.60;102237.00;;;;10482086;28;20189;-78
2023/05/26 15:39:32;;;;;;;10.77;3.60;;;;;27.70;102237.00;;;;10497399;28;20189;-79
2023/05/26 15:44:33;;;;;;;13.88;3.22;;;;;27.20;102242.00;;;;10509531;28;20192;-79
2023/05/26 15:49:35;;;;;;;10.05;3.45;;;;;24.80;102230.00;;;;10510136;28;20205;-79
2023/05/26 15:54:37;;;;;;;13.98;3.22;;;;;24.00;102229.00;;;;10500253;28;20667;-81
2023/05/26 15:59:38;;;;;;;9.43;3.28;;;;;23.50;102222.00;;;;10485247;28;20205;-82
2023/05/26 16:04:40;;;;;;;10.38;3.30;;;;;23.20;102232.00;;;;10483202;28;20368;-80
2023/05/26 16:09:45;;;;;;;12.18;3.53;;;;;22.90;102206.00;;;;10487482;28;20211;-73
2023/05/26 16:14:46;;;;;;;12.45;3.58;;;;;22.90;102219.00;;;;10496986;28;20319;-74
2023/05/26 16:19:47;;;;;;;10.82;3.78;;;;;22.70;102217.00;;;;10530327;28;20204;-76
2023/05/26 16:24:48;;;;;;;8.25;3.10;;;;;22.50;102225.00;;;;10490303;28;20333;-77
2023/05/26 16:29:50;;;;;;;11.95;3.13;;;;;22.40;102216.00;;;;10479137;28;20235;-77
2023/05/26 16:34:51;;;;;;;13.25;3.50;;;;;22.10;102217.00;;;;10467890;28;20233;-80
2023/05/26 16:39:52;;;;;;;11.20;3.15;;;;;21.90;102213.00;;;;10509387;28;20209;-80
2023/05/26 16:44:54;;;;;;;12.93;3.53;;;;;21.90;102215.00;;;;10361907;28;20887;-75
2023/05/26 16:49:55;;;;;;;10.15;3.45;;;;;21.80;102210.00;;;;10492406;28;20243;-79
2023/05/26 16:54:57;;;;;;;9.90;3.47;;;;;21.70;102213.00;;;;10509879;28;20304;-79
2023/05/26 16:59:58;;;;;;;12.50;3.63;;;;;21.70;102213.00;;;;10496899;28;20208;-79
2023/05/26 17:04:59;;;;;;;12.55;3.78;;;;;21.50;102210.00;;;;10516209;28;20221;-80
2023/05/26 17:10:02;;;;;;;9.50;3.00;;;;;21.50;102202.00;;;;10432324;28;20316;-75
2023/05/26 17:15:05;;;;;;;10.57;3.90;;;;;21.30;102205.00;;;;10468258;28;20213;-72
2023/05/26 17:20:08;;;;;;;8.45;3.05;;;;;21.10;102213.00;;;;10497379;28;20197;-73
2023/05/26 17:25:13;;;;;;;11.27;3.13;;;;;20.90;102201.00;;;;10472919;28;20567;-72
2023/05/26 17:30:15;;;;;;;13.65;3.33;;;;;20.90;102204.00;;;;10515123;28;20246;-72
2023/05/26 17:35:16;;;;;;;9.35;3.25;;;;;20.90;102207.00;;;;10526019;28;20220;-78
2023/05/26 17:40:18;;;;;;;11.93;3.80;;;;;20.80;102205.00;;;;10525419;28;20680;-78
2023/05/26 17:45:19;;;;;;;9.55;3.45;;;;;20.70;102210.00;;;;10407347;28;20582;-77
2023/05/26 17:50:21;;;;;;;8.95;2.72;;;;;20.50;102212.00;;;;10382305;28;20205;-78
2023/05/26 17:55:23;;;;;;;11.55;3.53;;;;;20.40;102202.00;;;;10384310;28;20217;-79
2023/05/26 18:00:24;;;;;;;9.52;2.88;;;;;20.20;102212.00;;;;10389511;28;20449;-76
2023/05/26 18:05:25;;;;;;;9.88;2.45;;;;;20.00;102209.00;;;;10383490;28;20235;-79
2023/05/26 18:10:27;;;;;;;10.65;3.20;;;;;19.90;102207.00;;;;10385609;28;20285;-76
2023/05/26 18:15:29;;;;;;;9.48;3.03;;;;;19.70;102208.00;;;;10371300;28;22264;-80
2023/05/26 18:20:31;;;;;;;14.35;2.95;;;;;19.60;102207.00;;;;10365877;28;20293;-78
2023/05/26 18:25:34;;;;;;;10.43;3.28;;;;;19.40;102206.00;;;;10368702;28;20465;-77
2023/05/26 18:30:36;;;;;;;12.20;2.90;;;;;19.40;102217.00;;;;10389700;28;20236;-76
2023/05/26 18:35:37;;;;;;;7.75;2.83;;;;;19.20;102210.00;;;;10406729;28;20370;-74
2023/05/26 18:40:38;;;;;;;13.68;3.33;;;;;19.10;102207.00;;;;10470635;28;21265;-76
2023/05/26 18:45:40;;;;;;;11.27;2.92;;;;;18.90;102201.00;;;;10478624;28;20708;-75
2023/05/26 18:50:41;;;;;;;10.93;3.03;;;;;18.70;102210.00;;;;10479954;28;20189;-75
2023/05/26 18:55:43;;;;;;;9.93;2.90;;;;;18.50;102215.00;;;;10420770;28;20568;-76
2023/05/26 19:00:44;;;;;;;11.18;3.45;;;;;18.40;102207.00;;;;10385214;28;20783;-76
2023/05/26 19:05:46;;;;;;;10.63;3.10;;;;;18.20;102223.00;;;;10384714;28;20450;-76
2023/05/26 19:10:48;;;;;;;12.15;3.42;;;;;18.00;102219.00;;;;10385524;28;20213;-75
2023/05/26 19:15:49;;;;;;;9.25;3.20;;;;;17.90;102217.00;;;;10366309;28;20228;-76
2023/05/26 19:20:50;;;;;;;12.75;3.05;;;;;17.70;102215.00;;;;10363886;28;20220;-75
2023/05/26 19:25:52;;;;;;;11.45;3.08;;;;;17.40;102224.00;;;;10382556;28;20208;-76
2023/05/26 19:30:54;;;;;;;10.32;3.50;;;;;17.20;102222.00;;;;10452742;28;20255;-75
2023/05/26 19:35:55;;;;;;;12.68;3.28;;;;;17.00;102214.00;;;;10449325;28;20220;-74
2023/05/26 19:40:56;;;;;;;9.82;3.67;;;;;16.80;102234.00;;;;10464558;28;20193;-75
2023/05/26 19:45:58;;;;;;;10.32;3.22;;;;;16.60;102226.00;;;;10481203;28;20208;-78
2023/05/26 19:50:59;;;;;;;9.40;2.65;;;;;16.50;102226.00;;;;10407803;28;20217;-78
2023/05/26 19:56:01;;;;;;;12.82;3.42;;;;;16.30;102237.00;;;;10383534;28;20744;-77
2023/05/26 20:01:03;;;;;;;12.52;3.65;;;;;16.20;102251.00;;;;10486436;28;20224;-77
2023/05/26 20:06:05;;;;;;;10.98;3.22;;;;;16.00;102253.00;;;;10479423;28;20200;-77
2023/05/26 20:11:06;;;;;;;12.90;3.23;;;;;15.90;102256.00;;;;10462328;28;20209;-77
2023/05/26 20:16:07;;;;;;;11.43;3.53;;;;;15.80;102251.00;;;;10480763;28;20601;-73
2023/05/26 20:21:09;;;;;;;10.65;3.45;;;;;15.70;102256.00;;;;10470774;28;20237;-84
2023/05/26 20:26:11;;;;;;;10.25;3.17;;;;;15.70;102254.00;;;;10464983;28;20206;-82
2023/05/26 20:31:16;;;;;;;11.80;3.53;;;;;15.50;102256.00;;;;10445379;28;20680;-75
2023/05/26 20:36:20;;;;;;;16.47;3.50;;;;;15.40;102258.00;;;;10429474;28;20221;-77
2023/05/26 20:41:22;;;;;;;14.87;3.93;;;;;15.30;102257.00;;;;10462656;28;20213;-77
2023/05/26 20:46:25;;;;;;;12.53;4.00;;;;;15.20;102262.00;;;;10460685;28;20197;-72
2023/05/26 20:51:26;;;;;;;13.60;3.53;;;;;15.10;102264.00;;;;10466068;28;20201;-74
2023/05/26 20:56:31;;;;;;;14.43;3.47;;;;;15.00;102273.00;;;;10447624;28;20217;-76
2023/05/26 21:01:32;;;;;;;9.13;3.10;;;;;15.00;102261.00;;;;10445587;28;20209;-82
2023/05/26 21:06:35;;;;;;;9.90;3.47;;;;;14.80;102260.00;;;;10481461;28;20221;-81
2023/05/26 21:11:36;;;;;;;10.67;3.87;;;;;14.80;102262.00;;;;10457802;28;20216;-73
2023/05/26 21:16:38;;;;;;;10.83;3.23;;;;;14.70;102260.00;;;;10480519;28;20220;-74
2023/05/26 21:21:39;;;;;;;15.33;3.77;;;;;14.60;102262.00;;;;10474547;28;20221;-75
2023/05/26 21:26:41;;;;;;;14.83;3.33;;;;;14.50;102262.00;;;;10479301;28;20679;-76
2023/05/26 21:31:42;;;;;;;12.73;3.60;;;;;14.40;102261.00;;;;10449367;28;20263;-73
2023/05/26 21:36:44;;;;;;;11.43;3.33;;;;;14.30;102269.00;;;;10481765;28;20208;-73
2023/05/26 21:41:45;;;;;;;14.23;3.90;;;;;14.20;102267.00;;;;10380490;28;20279;-77
2023/05/26 21:46:47;;;;;;;14.67;4.20;;;;;14.10;102269.00;;;;10378987;28;21474;-77
2023/05/26 21:51:48;;;;;;;13.33;3.60;;;;;14.00;102260.00;;;;10376480;28;20205;-77
2023/05/26 21:56:50;;;;;;;18.63;4.00;;;;;13.90;102271.00;;;;10362698;28;20239;-77
2023/05/26 22:01:51;;;;;;;14.77;4.43;;;;;13.90;102271.00;;;;10379381;28;21008;-76
2023/05/26 22:06:53;;;;;;;12.43;3.67;;;;;13.80;102264.00;;;;10392625;28;20733;-79
2023/05/26 22:11:54;;;;;;;17.93;4.27;;;;;13.70;102259.00;;;;10460380;28;20279;-78
2023/05/26 22:16:56;;;;;;;15.30;4.43;;;;;13.60;102260.00;;;;10488922;28;20216;-77
2023/05/26 22:21:57;;;;;;;17.87;3.70;;;;;13.50;102253.00;;;;10471133;28;20285;-76
2023/05/26 22:26:58;;;;;;;15.90;3.97;;;;;13.30;102252.00;;;;10402688;28;20469;-76
2023/05/26 22:32:00;;;;;;;18.47;4.07;;;;;13.20;102259.00;;;;10359711;28;20308;-77
2023/05/26 22:37:01;;;;;;;10.87;3.43;;;;;13.10;102258.00;;;;10378531;28;20677;-77
2023/05/26 22:42:03;;;;;;;14.60;4.60;;;;;13.00;102262.00;;;;10395377;28;20295;-76
2023/05/26 22:47:05;;;;;;;12.47;4.13;;;;;12.90;102262.00;;;;10444051;28;20551;-73
2023/05/26 22:52:06;;;;;;;16.83;5.10;;;;;12.80;102263.00;;;;10471001;28;20201;-73
2023/05/26 22:57:08;;;;;;;13.07;4.03;;;;;12.70;102266.00;;;;10465679;28;20265;-77
2023/05/26 23:02:10;;;;;;;17.00;5.00;;;;;12.60;102263.00;;;;10393443;28;20210;-76
2023/05/26 23:07:11;;;;;;;16.50;4.27;;;;;12.50;102253.00;;;;10373938;28;20205;-77
2023/05/26 23:12:13;;;;;;;10.60;3.97;;;;;12.40;102261.00;;;;10465245;28;20209;-80
2023/05/26 23:17:14;;;;;;;10.07;4.10;;;;;12.30;102262.00;;;;10486560;28;20261;-78
2023/05/26 23:22:15;;;;;;;13.77;4.37;;;;;12.20;102250.00;;;;10495935;28;20725;-78
2023/05/26 23:27:17;;;;;;;15.00;4.80;;;;;12.10;102254.00;;;;10535491;28;20566;-78
2023/05/26 23:32:18;;;;;;;20.17;5.20;;;;;12.00;102240.00;;;;10480865;28;20205;-72
2023/05/26 23:37:20;;;;;;;18.23;4.80;;;;;12.00;102242.00;;;;10430585;28;21387;-77
2023/05/26 23:42:21;;;;;;;19.63;5.20;;;;;11.90;102243.00;;;;10391800;28;20200;-76
2023/05/26 23:47:22;;;;;;;14.53;4.53;;;;;11.80;102245.00;;;;10467070;28;20208;-73
2023/05/26 23:52:24;;;;;;;20.60;4.60;;;;;11.70;102236.00;;;;10425943;28;20219;-76
2023/05/26 23:57:26;;;;;;;13.67;4.60;;;;;11.60;102242.00;;;;10395834;28;20280;-76
